Desert Oasis — SVBM8 — position and weather

sailwx.info

Track history (hours):
 
Tides and Currents Weather Stations Pressure Air Temp Water Temp Dewpoint Dewpoint Depression Visibility Wind Speed Wind Dir Waves Ship Positions

Desert Oasis

Last reported at 2018-Jun-20 20:59 UTC. Time now 2018-Jun-20 20:58 UTC.
Position S 29°52' E 031°02'.

Length 193 m; draft 11.9 m.

Type: Cargo ship. MMSI: 241183000.

Date/timePositionNaut miles runAvg speedWind from/ knotsBaromVisibWave heightAir tempDewpointWater temp
2018-Jun-20 20:59S 29°52' E 031°02'0 0.0
2018-Jun-20 20:29S 29°52' E 031°02'0 0.0
2018-Jun-20 19:59S 29°52' E 031°02'0 0.0
2018-Jun-20 19:29S 29°52' E 031°02'0 0.0
2018-Jun-20 18:59S 29°52' E 031°02'0 0.0
2018-Jun-20 18:29S 29°52' E 031°02'0 0.0
2018-Jun-20 18:00S 29°52' E 031°02'0 0.9
2018-Jun-20 17:30S 29°53' E 031°03'4 7.4
2018-Jun-20 17:00S 29°51' E 031°06'2 3.9
2018-Jun-20 16:30S 29°49' E 031°08'1 1.7
2018-Jun-20 16:00S 29°49' E 031°09'4 7.6
2018-Jun-20 15:30S 29°49' E 031°13'0 0.8
2018-Jun-20 14:59S 29°49' E 031°13'0 0.6
2018-Jun-20 14:29S 29°49' E 031°13'0 0.6
2018-Jun-20 13:59S 29°50' E 031°13'0 0.7
2018-Jun-20 13:29S 29°50' E 031°13'0 0.7
2018-Jun-20 12:59S 29°50' E 031°12'0 1.0
2018-Jun-20 12:30S 29°49' E 031°13'4 8.2
2018-Jun-20 12:00S 29°49' E 031°17'5 8.7
2018-Jun-20 11:28S 29°48' E 031°23'4 9.2
2018-Jun-20 11:00S 29°49' E 031°27'510.3
2018-Jun-20 10:30S 29°50' E 031°33'  
Track history (hours):
 
Tides and Currents Weather Stations Pressure Air Temp Water Temp Dewpoint Dewpoint Depression Visibility Wind Speed Wind Dir Waves Ship Positions

Desert Oasis

Last reported at 2018-Jun-20 20:59 UTC. Time now 2018-Jun-20 20:58 UTC.
Position S 29°52' E 031°02'.

Length 193 m; draft 11.9 m.

Type: Cargo ship. MMSI: 241183000.

Date/timePositionNaut miles runAvg speedWind from/ knotsBaromVisibWave heightAir tempDewpointWater temp
2018-Jun-20 20:59S 29°52' E 031°02'0 0.0
2018-Jun-20 20:29S 29°52' E 031°02'0 0.0
2018-Jun-20 19:59S 29°52' E 031°02'0 0.0
2018-Jun-20 19:29S 29°52' E 031°02'0 0.0
2018-Jun-20 18:59S 29°52' E 031°02'0 0.0
2018-Jun-20 18:29S 29°52' E 031°02'0 0.0
2018-Jun-20 18:00S 29°52' E 031°02'0 0.9
2018-Jun-20 17:30S 29°53' E 031°03'4 7.4
2018-Jun-20 17:00S 29°51' E 031°06'2 3.9
2018-Jun-20 16:30S 29°49' E 031°08'1 1.7
2018-Jun-20 16:00S 29°49' E 031°09'4 7.6
2018-Jun-20 15:30S 29°49' E 031°13'0 0.8
2018-Jun-20 14:59S 29°49' E 031°13'0 0.6
2018-Jun-20 14:29S 29°49' E 031°13'0 0.6
2018-Jun-20 13:59S 29°50' E 031°13'0 0.7
2018-Jun-20 13:29S 29°50' E 031°13'0 0.7
2018-Jun-20 12:59S 29°50' E 031°12'0 1.0
2018-Jun-20 12:30S 29°49' E 031°13'4 8.2
2018-Jun-20 12:00S 29°49' E 031°17'5 8.7
2018-Jun-20 11:28S 29°48' E 031°23'4 9.2
2018-Jun-20 11:00S 29°49' E 031°27'510.3
2018-Jun-20 10:30S 29°50' E 031°33'  

Dump ship's entire track history